createdAt,value
2023-01-17T00:00:16.255Z,4.82
2023-01-17T00:02:50.911Z,4.88
2023-01-17T00:05:44.045Z,4.89
2023-01-17T00:08:41.747Z,4.93
2023-01-17T00:11:16.011Z,4.95
2023-01-17T00:13:50.816Z,4.96
2023-01-17T00:16:25.132Z,5.20
2023-01-17T00:19:13.761Z,4.94
2023-01-17T00:22:07.081Z,4.98
2023-01-17T00:24:59.376Z,4.89
2023-01-17T00:27:32.378Z,4.93
2023-01-17T00:30:07.334Z,4.90
2023-01-17T00:32:40.390Z,5.04
2023-01-17T00:35:14.022Z,4.97
2023-01-17T00:37:48.504Z,4.94
2023-01-17T00:40:21.862Z,5.00
2023-01-17T00:43:13.896Z,4.99
2023-01-17T00:46:06.439Z,4.97
2023-01-17T00:48:58.188Z,4.93
2023-01-17T00:51:51.349Z,4.89
2023-01-17T00:54:44.181Z,4.94
2023-01-17T00:57:36.058Z,5.05
2023-01-17T01:00:29.866Z,4.85
2023-01-17T01:03:27.451Z,4.80
2023-01-17T01:06:23.457Z,4.87
2023-01-17T01:09:16.075Z,4.89
2023-01-17T01:12:08.985Z,4.88
2023-01-17T01:15:01.261Z,4.95
2023-01-17T01:17:53.094Z,4.98
2023-01-17T01:20:45.307Z,5.04
2023-01-17T01:23:37.149Z,4.95
2023-01-17T01:26:29.353Z,4.88
2023-01-17T01:29:22.424Z,4.74
2023-01-17T01:32:14.599Z,4.84
2023-01-17T01:34:48.824Z,4.97
2023-01-17T01:37:23.477Z,4.93
2023-01-17T01:39:58.138Z,4.94
2023-01-17T01:42:32.846Z,4.92
2023-01-17T01:45:18.065Z,4.82
2023-01-17T01:47:56.570Z,4.82
2023-01-17T01:50:34.618Z,4.76
2023-01-17T01:53:09.479Z,4.80
2023-01-17T01:55:45.585Z,4.81
2023-01-17T01:58:23.753Z,4.77
2023-01-17T02:01:00.177Z,4.81
2023-01-17T02:03:35.747Z,4.84
2023-01-17T02:06:26.861Z,4.89
2023-01-17T02:09:05.441Z,4.83
2023-01-17T02:11:41.819Z,4.97
2023-01-17T02:14:17.589Z,5.02
2023-01-17T02:17:12.433Z,5.02
2023-01-17T02:20:16.805Z,5.07
2023-01-17T02:23:18.316Z,5.04
2023-01-17T02:26:14.908Z,5.11
2023-01-17T02:29:10.905Z,5.17
2023-01-17T02:31:50.837Z,5.10
2023-01-17T02:34:32.862Z,5.10
2023-01-17T02:37:14.416Z,5.09
2023-01-17T02:39:55.348Z,5.14
2023-01-17T02:42:36.118Z,5.06
2023-01-17T02:45:15.925Z,5.11
2023-01-17T02:47:51.963Z,5.22
2023-01-17T02:50:38.986Z,5.23
2023-01-17T02:53:30.277Z,5.17
2023-01-17T02:56:12.958Z,5.23
2023-01-17T02:59:02.026Z,5.18
2023-01-17T03:01:44.941Z,5.19
2023-01-17T03:04:25.965Z,5.32
2023-01-17T03:07:03.828Z,5.24
2023-01-17T03:09:40.825Z,5.20
2023-01-17T03:12:15.241Z,5.18
2023-01-17T03:14:49.861Z,5.18
2023-01-17T03:17:26.398Z,5.17
2023-01-17T03:20:02.316Z,5.09
2023-01-17T03:22:36.483Z,5.11
2023-01-17T03:25:11.116Z,5.10
2023-01-17T03:27:45.350Z,5.07
2023-01-17T03:30:21.864Z,4.96
2023-01-17T03:32:56.050Z,4.97
2023-01-17T03:35:32.024Z,5.01
2023-01-17T03:38:06.799Z,4.82
2023-01-17T03:40:41.361Z,4.81
2023-01-17T03:43:15.597Z,4.80
2023-01-17T03:45:52.167Z,4.79
2023-01-17T03:48:26.481Z,4.82
2023-01-17T03:51:02.335Z,4.81
2023-01-17T03:53:36.762Z,4.86
2023-01-17T03:56:11.273Z,4.83
2023-01-17T03:58:45.786Z,4.86
2023-01-17T04:01:20.325Z,4.87
2023-01-17T04:03:55.417Z,4.88
2023-01-17T04:06:31.071Z,4.90
2023-01-17T04:09:05.632Z,4.88
2023-01-17T04:11:39.813Z,4.81
2023-01-17T04:14:14.353Z,4.86
2023-01-17T04:16:48.664Z,4.90
2023-01-17T04:19:23.508Z,4.88
2023-01-17T04:21:59.061Z,4.87
2023-01-17T04:24:33.601Z,4.91
2023-01-17T04:27:07.974Z,4.94
2023-01-17T04:29:42.597Z,4.90
2023-01-17T04:32:16.901Z,5.00
2023-01-17T04:34:51.369Z,5.00
2023-01-17T04:37:27.132Z,5.12
2023-01-17T04:40:01.735Z,5.18
2023-01-17T04:42:36.010Z,5.30
2023-01-17T04:45:11.479Z,5.19
2023-01-17T04:47:45.701Z,5.38
2023-01-17T04:50:20.433Z,5.38
2023-01-17T04:52:56.039Z,5.43
2023-01-17T04:55:30.484Z,5.40
2023-01-17T04:58:04.840Z,5.43
2023-01-17T05:00:39.852Z,5.45
2023-01-17T05:03:14.029Z,5.36
2023-01-17T05:05:48.622Z,5.39
2023-01-17T05:08:24.349Z,5.29
2023-01-17T05:10:59.572Z,5.37
2023-01-17T05:13:33.773Z,5.40
2023-01-17T05:16:08.857Z,5.34
2023-01-17T05:18:43.407Z,5.23
2023-01-17T05:21:18.003Z,5.28
2023-01-17T05:23:53.649Z,5.33
2023-01-17T05:26:28.209Z,5.18
2023-01-17T05:29:02.598Z,5.30
2023-01-17T05:31:37.476Z,5.30
2023-01-17T05:34:11.782Z,5.29
2023-01-17T05:36:46.279Z,5.30
2023-01-17T05:39:21.888Z,5.30
2023-01-17T05:41:56.334Z,5.33
2023-01-17T05:44:30.509Z,5.26
2023-01-17T05:47:04.989Z,5.26
2023-01-17T05:49:39.870Z,5.32
2023-01-17T05:52:14.457Z,5.37
2023-01-17T05:54:50.752Z,5.31
2023-01-17T05:57:25.260Z,5.24
2023-01-17T05:59:59.807Z,5.12
2023-01-17T06:02:34.381Z,5.08
2023-01-17T06:05:09.444Z,5.09
2023-01-17T06:07:45.472Z,5.09
2023-01-17T06:10:22.322Z,5.08
2023-01-17T06:13:04.511Z,4.97
2023-01-17T06:15:40.019Z,4.99
2023-01-17T06:18:16.192Z,4.93
2023-01-17T06:20:54.601Z,4.86
2023-01-17T06:23:29.494Z,4.77
2023-01-17T06:26:07.263Z,4.67
2023-01-17T06:28:41.625Z,4.67
2023-01-17T06:31:16.128Z,4.57
2023-01-17T06:33:50.386Z,4.54
2023-01-17T06:36:25.225Z,4.45
2023-01-17T06:38:59.564Z,4.42
2023-01-17T06:41:35.445Z,4.40
2023-01-17T06:44:10.514Z,4.45
2023-01-17T06:46:47.683Z,4.48
2023-01-17T06:49:22.208Z,4.52
2023-01-17T06:51:56.838Z,4.44
2023-01-17T06:54:31.151Z,4.42
2023-01-17T06:57:07.096Z,4.42
2023-01-17T06:59:41.270Z,4.53
2023-01-17T07:03:02.225Z,5.05
2023-01-17T07:05:37.479Z,5.05
2023-01-17T07:08:11.642Z,4.49
2023-01-17T07:10:46.802Z,4.55
2023-01-17T07:13:21.108Z,4.53
2023-01-17T07:15:55.928Z,4.57
2023-01-17T07:18:31.653Z,4.59
2023-01-17T07:21:06.302Z,4.58
2023-01-17T07:23:40.591Z,4.54
2023-01-17T07:26:17.005Z,4.53
2023-01-17T07:28:51.341Z,4.60
2023-01-17T07:31:26.033Z,4.59
2023-01-17T07:34:02.006Z,4.53
2023-01-17T07:36:36.524Z,4.50
2023-01-17T07:39:11.452Z,4.48
2023-01-17T07:41:47.257Z,4.52
2023-01-17T07:44:21.537Z,4.56
2023-01-17T07:46:56.084Z,4.69
2023-01-17T07:49:31.877Z,4.73
2023-01-17T07:52:08.466Z,4.69
2023-01-17T07:54:42.758Z,4.71
2023-01-17T07:57:17.333Z,4.69
2023-01-17T07:59:52.398Z,4.75
2023-01-17T08:02:26.963Z,4.86
2023-01-17T08:05:02.839Z,4.92
2023-01-17T08:07:37.212Z,5.00
2023-01-17T08:10:18.156Z,5.10
2023-01-17T08:12:52.369Z,5.19
2023-01-17T08:15:27.100Z,5.31
2023-01-17T08:18:01.323Z,5.51
2023-01-17T08:20:37.241Z,5.59
2023-01-17T08:23:12.032Z,5.80
2023-01-17T08:25:46.548Z,5.93
2023-01-17T08:28:20.995Z,6.03
2023-01-17T08:30:55.629Z,6.07
2023-01-17T08:33:29.814Z,6.20
2023-01-17T08:36:05.908Z,6.40
2023-01-17T08:38:40.044Z,6.50
2023-01-17T08:41:14.644Z,6.45
2023-01-17T08:43:49.037Z,6.43
2023-01-17T08:46:24.365Z,6.53
2023-01-17T08:49:01.430Z,6.73
2023-01-17T08:51:37.670Z,6.79
2023-01-17T08:54:13.441Z,6.88
2023-01-17T08:56:48.039Z,7.10
2023-01-17T08:59:22.537Z,7.04
2023-01-17T09:01:58.402Z,7.06
2023-01-17T09:04:35.544Z,7.22
2023-01-17T09:07:11.381Z,7.42
2023-01-17T09:09:48.410Z,7.36
2023-01-17T09:12:23.288Z,7.33
2023-01-17T09:14:57.486Z,7.40
2023-01-17T09:17:32.172Z,7.49
2023-01-17T09:20:07.722Z,7.63
2023-01-17T09:22:45.649Z,7.38
2023-01-17T09:25:20.398Z,7.48
2023-01-17T09:27:55.491Z,7.64
2023-01-17T09:30:29.761Z,7.72
2023-01-17T09:33:04.318Z,7.80
2023-01-17T09:35:38.522Z,7.75
2023-01-17T09:38:15.190Z,7.83
2023-01-17T09:40:50.256Z,8.13
2023-01-17T09:43:33.250Z,7.97
2023-01-17T09:46:18.833Z,8.08
2023-01-17T09:49:00.035Z,8.15
2023-01-17T09:51:34.413Z,8.34
2023-01-17T09:54:19.312Z,8.41
2023-01-17T09:57:02.021Z,8.63
2023-01-17T09:59:45.738Z,8.69
2023-01-17T10:02:43.279Z,8.65
2023-01-17T10:05:33.388Z,8.95
2023-01-17T10:08:21.550Z,9.16
2023-01-17T10:11:17.395Z,9.25
2023-01-17T10:14:02.936Z,9.20
2023-01-17T10:16:45.924Z,8.99
2023-01-17T10:19:32.779Z,9.04
2023-01-17T10:22:24.752Z,9.11
2023-01-17T10:25:20.033Z,9.11
2023-01-17T10:27:59.563Z,9.09
2023-01-17T10:30:38.167Z,9.24
2023-01-17T10:33:17.885Z,9.01
2023-01-17T10:36:00.014Z,8.85
2023-01-17T10:38:36.705Z,9.19
2023-01-17T10:41:17.057Z,9.32
2023-01-17T10:43:57.219Z,9.39
2023-01-17T10:46:37.525Z,9.18
2023-01-17T10:49:17.870Z,9.29
2023-01-17T10:52:12.868Z,9.25
2023-01-17T10:54:59.164Z,11.90
2023-01-17T10:57:39.462Z,13.01
2023-01-17T11:00:29.846Z,11.60
2023-01-17T11:03:04.153Z,10.73
2023-01-17T11:05:38.917Z,9.82
2023-01-17T11:08:14.568Z,9.67
2023-01-17T11:10:54.223Z,9.29
2023-01-17T11:13:32.385Z,9.30
2023-01-17T11:16:11.363Z,9.24
2023-01-17T11:18:47.943Z,9.29
2023-01-17T11:21:24.671Z,9.39
2023-01-17T11:23:59.061Z,9.43
2023-01-17T11:26:36.417Z,9.19
2023-01-17T11:29:26.876Z,9.23
2023-01-17T11:32:32.246Z,9.28
2023-01-17T11:35:18.665Z,9.31
2023-01-17T11:37:59.316Z,9.61
2023-01-17T11:40:38.208Z,9.24
2023-01-17T11:43:23.094Z,9.59
2023-01-17T11:46:06.309Z,9.49
2023-01-17T11:48:42.620Z,9.50
2023-01-17T11:51:28.331Z,9.53
2023-01-17T11:54:18.092Z,9.32
2023-01-17T11:56:59.079Z,9.25
2023-01-17T11:59:37.584Z,9.45
2023-01-17T12:02:39.020Z,9.31
2023-01-17T12:05:27.293Z,9.21
2023-01-17T12:08:16.071Z,9.01
2023-01-17T12:10:58.455Z,9.01
2023-01-17T12:13:59.815Z,9.15
2023-01-17T12:16:49.103Z,9.26
2023-01-17T12:19:39.040Z,9.28
2023-01-17T12:22:33.965Z,9.26
2023-01-17T12:25:25.112Z,9.12
2023-01-17T12:28:16.679Z,8.97
2023-01-17T12:31:05.943Z,8.71
2023-01-17T12:33:48.405Z,8.51
2023-01-17T12:36:41.240Z,8.36
2023-01-17T12:39:19.528Z,8.35
2023-01-17T12:42:07.490Z,8.27
2023-01-17T12:44:51.911Z,8.29
2023-01-17T12:47:26.929Z,8.40
2023-01-17T12:50:09.512Z,8.33
2023-01-17T12:52:52.745Z,8.30
2023-01-17T12:55:41.518Z,8.22
2023-01-17T12:58:21.905Z,8.28
2023-01-17T13:01:03.348Z,8.30
2023-01-17T13:03:57.721Z,8.17
2023-01-17T13:06:43.551Z,8.16
2023-01-17T13:09:23.682Z,8.15
2023-01-17T13:12:04.530Z,8.14
2023-01-17T13:14:38.763Z,8.09
2023-01-17T13:17:32.741Z,8.01
2023-01-17T13:20:20.057Z,8.04
2023-01-17T13:22:58.228Z,8.00
2023-01-17T13:25:42.493Z,7.99
2023-01-17T13:28:30.932Z,7.93
2023-01-17T13:31:25.520Z,7.87
2023-01-17T13:34:33.846Z,7.93
2023-01-17T13:37:43.847Z,7.86
2023-01-17T13:40:50.199Z,7.85
2023-01-17T13:43:27.888Z,7.82
2023-01-17T13:46:04.382Z,7.79
2023-01-17T13:48:41.020Z,7.70
2023-01-17T13:51:15.647Z,7.70
2023-01-17T13:53:49.854Z,7.77
2023-01-17T13:56:35.403Z,7.71
2023-01-17T13:59:36.068Z,7.73
2023-01-17T14:02:36.723Z,7.66
2023-01-17T14:05:15.318Z,7.65
2023-01-17T14:07:55.465Z,7.62
2023-01-17T14:10:39.449Z,7.49
2023-01-17T14:13:34.867Z,7.42
2023-01-17T14:16:28.135Z,7.45
2023-01-17T14:19:02.513Z,7.49
2023-01-17T14:21:37.329Z,7.42
2023-01-17T14:24:19.775Z,7.38
2023-01-17T14:26:57.041Z,7.33
2023-01-17T14:29:58.966Z,7.38
2023-01-17T14:32:37.791Z,7.33
2023-01-17T14:35:23.386Z,7.27
2023-01-17T14:38:01.827Z,7.23
2023-01-17T14:40:39.743Z,7.18
2023-01-17T14:43:17.227Z,7.27
2023-01-17T14:45:59.816Z,7.19
2023-01-17T14:48:40.524Z,7.19
2023-01-17T14:51:15.809Z,7.17
2023-01-17T14:53:55.675Z,7.13
2023-01-17T14:56:32.045Z,7.12
2023-01-17T14:59:14.455Z,7.15
2023-01-17T15:03:46.308Z,7.20
2023-01-17T15:06:24.166Z,7.06
2023-01-17T15:09:01.073Z,7.16
2023-01-17T15:11:37.701Z,7.11
2023-01-17T15:14:20.076Z,7.19
2023-01-17T15:16:55.025Z,7.04
2023-01-17T15:19:42.929Z,7.12
2023-01-17T15:22:20.339Z,7.10
2023-01-17T15:24:55.095Z,7.08
2023-01-17T15:27:29.748Z,7.07
2023-01-17T15:30:06.906Z,7.11
2023-01-17T15:32:41.396Z,7.03
2023-01-17T15:35:19.798Z,6.99
2023-01-17T15:37:57.146Z,7.01
2023-01-17T15:40:33.245Z,6.93
2023-01-17T15:43:19.682Z,6.91
2023-01-17T15:45:58.138Z,6.90
2023-01-17T15:48:40.645Z,6.91
2023-01-17T15:51:31.916Z,6.82
2023-01-17T15:54:35.399Z,6.74
2023-01-17T15:57:27.275Z,6.68
2023-01-17T16:00:05.874Z,6.70
2023-01-17T16:02:43.813Z,6.66
2023-01-17T16:05:35.345Z,6.62
2023-01-17T16:08:33.984Z,6.58
2023-01-17T16:11:13.147Z,6.58
2023-01-17T16:13:48.616Z,6.58
2023-01-17T16:16:26.585Z,6.48
2023-01-17T16:19:03.211Z,6.55
2023-01-17T16:21:37.776Z,6.41
2023-01-17T16:24:13.425Z,6.48
2023-01-17T16:26:47.925Z,6.52
2023-01-17T16:29:22.282Z,6.52
2023-01-17T16:31:57.169Z,6.55
2023-01-17T16:34:31.339Z,6.51
2023-01-17T16:37:05.872Z,6.43
2023-01-17T16:39:41.589Z,6.46
2023-01-17T16:42:16.135Z,6.52
2023-01-17T16:44:50.332Z,6.52
2023-01-17T16:47:24.896Z,6.57
2023-01-17T16:49:59.166Z,6.50
2023-01-17T16:52:33.739Z,6.42
2023-01-17T16:55:13.298Z,6.47
2023-01-17T16:57:47.818Z,6.42
2023-01-17T17:00:23.057Z,6.48
2023-01-17T17:02:57.798Z,6.43
2023-01-17T17:05:33.522Z,6.46
2023-01-17T17:08:08.377Z,6.46
2023-01-17T17:10:43.929Z,6.47
2023-01-17T17:13:18.553Z,6.43
2023-01-17T17:15:52.853Z,6.54
2023-01-17T17:18:27.751Z,6.43
2023-01-17T17:21:03.131Z,6.47
2023-01-17T17:23:38.102Z,6.51
2023-01-17T17:26:13.834Z,6.43
2023-01-17T17:28:52.571Z,6.40
2023-01-17T17:31:27.086Z,6.47
2023-01-17T17:34:02.444Z,6.46
2023-01-17T17:36:37.280Z,6.51
2023-01-17T17:39:14.831Z,6.53
2023-01-17T17:41:50.505Z,6.51
2023-01-17T17:44:25.056Z,6.45
2023-01-17T17:46:59.405Z,6.30
2023-01-17T17:49:34.158Z,6.43
2023-01-17T17:52:09.610Z,6.39
2023-01-17T17:54:44.439Z,6.33
2023-01-17T17:57:19.999Z,6.32
2023-01-17T17:59:56.799Z,6.38
2023-01-17T18:02:31.669Z,6.35
2023-01-17T18:05:07.307Z,6.28
2023-01-17T18:07:41.891Z,6.34
2023-01-17T18:10:17.703Z,6.18
2023-01-17T18:12:53.777Z,6.20
2023-01-17T18:15:28.334Z,6.23
2023-01-17T18:18:02.833Z,6.10
2023-01-17T18:20:37.503Z,6.12
2023-01-17T18:23:11.834Z,6.12
2023-01-17T18:25:46.471Z,6.03
2023-01-17T18:28:22.229Z,6.00
2023-01-17T18:30:56.997Z,5.94
2023-01-17T18:33:31.331Z,5.91
2023-01-17T18:36:07.399Z,5.91
2023-01-17T18:38:44.039Z,5.99
2023-01-17T18:41:20.558Z,6.04
2023-01-17T18:43:56.951Z,5.96
2023-01-17T18:46:32.046Z,6.08
2023-01-17T18:49:07.132Z,6.04
2023-01-17T18:51:46.619Z,6.06
2023-01-17T18:54:22.109Z,5.95
2023-01-17T18:56:57.079Z,5.89
2023-01-17T18:59:33.748Z,5.87
2023-01-17T19:02:10.320Z,5.74
2023-01-17T19:04:44.946Z,5.63
2023-01-17T19:07:21.363Z,5.61
2023-01-17T19:09:55.927Z,5.59
2023-01-17T19:12:30.709Z,5.68
2023-01-17T19:15:08.047Z,5.60
2023-01-17T19:17:42.844Z,5.74
2023-01-17T19:20:19.070Z,5.76
2023-01-17T19:22:53.782Z,5.85
2023-01-17T19:25:28.533Z,5.66
2023-01-17T19:28:04.198Z,5.60
2023-01-17T19:30:40.881Z,5.64
2023-01-17T19:33:15.732Z,5.59
2023-01-17T19:35:50.327Z,5.55
2023-01-17T19:38:24.882Z,5.52
2023-01-17T19:40:59.385Z,5.57
2023-01-17T19:43:34.245Z,5.47
2023-01-17T19:46:11.216Z,5.49
2023-01-17T19:48:45.983Z,5.45
2023-01-17T19:51:20.300Z,5.49
2023-01-17T19:53:55.369Z,5.53
2023-01-17T19:56:31.155Z,5.48
2023-01-17T19:59:06.136Z,5.55
2023-01-17T20:01:44.658Z,7.80
2023-01-17T20:04:19.891Z,9.88
2023-01-17T20:06:54.938Z,9.77
2023-01-17T20:09:29.732Z,7.07
2023-01-17T20:12:04.216Z,6.52
2023-01-17T20:14:39.205Z,6.13
2023-01-17T20:17:15.058Z,6.11
2023-01-17T20:19:49.754Z,6.05
2023-01-17T20:22:24.340Z,5.94
2023-01-17T20:24:59.212Z,5.91
2023-01-17T20:27:34.852Z,5.87
2023-01-17T20:30:20.249Z,5.90
2023-01-17T20:32:57.645Z,5.82
2023-01-17T20:35:34.128Z,5.78
2023-01-17T20:38:10.569Z,5.88
2023-01-17T20:40:45.112Z,5.93
2023-01-17T20:43:19.582Z,5.87
2023-01-17T20:45:57.626Z,5.93
2023-01-17T20:48:33.546Z,9.25
2023-01-17T20:51:11.298Z,10.76
2023-01-17T20:53:46.995Z,9.02
2023-01-17T20:56:22.198Z,7.62
2023-01-17T20:58:58.009Z,7.07
2023-01-17T21:01:34.470Z,6.84
2023-01-17T21:04:11.208Z,6.73
2023-01-17T21:06:45.834Z,6.63
2023-01-17T21:09:21.410Z,6.50
2023-01-17T21:12:01.132Z,6.42
2023-01-17T21:14:37.664Z,6.43
2023-01-17T21:17:16.145Z,6.47
2023-01-17T21:19:51.845Z,6.39
2023-01-17T21:22:26.447Z,6.37
2023-01-17T21:25:00.742Z,6.33
2023-01-17T21:27:35.615Z,6.32
2023-01-17T21:30:11.384Z,6.38
2023-01-17T21:32:45.892Z,6.38
2023-01-17T21:35:22.115Z,6.40
2023-01-17T21:37:57.097Z,6.45
2023-01-17T21:40:31.564Z,6.42
2023-01-17T21:43:06.093Z,6.33
2023-01-17T21:45:41.556Z,6.25
2023-01-17T21:48:16.140Z,6.56
2023-01-17T21:50:52.704Z,6.45
2023-01-17T21:53:27.800Z,6.34
2023-01-17T21:56:20.094Z,6.43
2023-01-17T21:58:56.951Z,6.21
2023-01-17T22:01:34.353Z,5.86
2023-01-17T22:04:10.155Z,5.90
2023-01-17T22:06:45.679Z,6.00
2023-01-17T22:09:20.534Z,5.85
2023-01-17T22:11:54.732Z,5.82
2023-01-17T22:14:29.152Z,5.90
2023-01-17T22:17:03.398Z,6.29
2023-01-17T22:19:38.051Z,6.31
2023-01-17T22:22:14.104Z,6.08
2023-01-17T22:24:48.612Z,6.17
2023-01-17T22:27:22.825Z,6.19
2023-01-17T22:29:57.644Z,6.33
2023-01-17T22:32:31.825Z,6.35
2023-01-17T22:35:07.210Z,6.24
2023-01-17T22:37:44.401Z,6.10
2023-01-17T22:40:19.288Z,6.14
2023-01-17T22:42:54.006Z,6.33
2023-01-17T22:45:29.264Z,6.32
2023-01-17T22:48:03.543Z,6.20
2023-01-17T22:50:38.464Z,6.21
2023-01-17T22:53:14.260Z,6.39
2023-01-17T22:55:48.764Z,6.47
2023-01-17T22:58:23.159Z,6.25
2023-01-17T23:02:58.922Z,6.79
2023-01-17T23:05:34.152Z,6.79
2023-01-17T23:08:08.538Z,6.07
2023-01-17T23:11:00.744Z,6.06
2023-01-17T23:13:35.017Z,5.97
2023-01-17T23:16:27.652Z,6.00
2023-01-17T23:19:21.010Z,5.81
2023-01-17T23:22:15.790Z,5.73
2023-01-17T23:24:52.474Z,5.58
2023-01-17T23:27:46.573Z,5.67
2023-01-17T23:30:25.110Z,5.57
2023-01-17T23:33:01.415Z,5.91
2023-01-17T23:35:41.752Z,5.38
2023-01-17T23:38:29.360Z,5.44
2023-01-17T23:41:23.909Z,5.47
2023-01-17T23:43:59.634Z,5.72
2023-01-17T23:46:33.894Z,5.37
2023-01-17T23:49:08.486Z,5.22
2023-01-17T23:51:44.108Z,5.44
2023-01-17T23:54:18.633Z,5.39
2023-01-17T23:56:52.918Z,5.44
2023-01-17T23:59:27.421Z,5.48
